createdAt,value
2023-03-06T00:02:03.877Z,84.20
2023-03-06T00:04:33.757Z,84.42
2023-03-06T00:07:04.647Z,84.35
2023-03-06T00:09:35.712Z,84.45
2023-03-06T00:12:07.656Z,84.31
2023-03-06T00:14:39.103Z,84.39
2023-03-06T00:17:10.168Z,84.18
2023-03-06T00:19:41.674Z,84.26
2023-03-06T00:22:14.024Z,84.45
2023-03-06T00:24:45.870Z,84.47
2023-03-06T00:27:16.942Z,84.50
2023-03-06T00:29:49.272Z,84.54
2023-03-06T00:32:20.313Z,84.66
2023-03-06T00:34:51.124Z,84.64
2023-03-06T00:37:22.870Z,84.66
2023-03-06T00:39:53.895Z,84.67
2023-03-06T00:42:25.200Z,84.75
2023-03-06T00:44:56.316Z,85.03
2023-03-06T00:47:27.292Z,85.16
2023-03-06T00:49:58.144Z,85.27
2023-03-06T00:52:29.184Z,85.22
2023-03-06T00:55:00.354Z,85.31
2023-03-06T00:57:31.358Z,85.52
2023-03-06T01:00:02.215Z,85.59
2023-03-06T01:02:35.474Z,85.50
2023-03-06T01:05:07.977Z,85.34
2023-03-06T01:07:39.107Z,85.52
2023-03-06T01:10:12.662Z,85.35
2023-03-06T01:12:43.866Z,85.34
2023-03-06T01:15:16.034Z,85.28
2023-03-06T01:17:47.323Z,85.21
2023-03-06T01:20:19.942Z,85.05
2023-03-06T01:22:50.917Z,85.19
2023-03-06T01:25:22.199Z,85.09
2023-03-06T01:27:53.170Z,85.20
2023-03-06T01:30:24.400Z,85.12
2023-03-06T01:32:54.141Z,85.09
2023-03-06T01:35:25.262Z,84.95
2023-03-06T01:37:56.104Z,85.12
2023-03-06T01:40:27.193Z,84.92
2023-03-06T01:42:58.175Z,84.93
2023-03-06T01:46:03.942Z,84.89
2023-03-06T01:48:35.208Z,84.96
2023-03-06T01:51:06.580Z,84.77
2023-03-06T01:53:38.019Z,84.66
2023-03-06T01:56:10.196Z,84.67
2023-03-06T01:58:41.448Z,84.46
2023-03-06T02:01:11.130Z,84.62
2023-03-06T02:03:43.923Z,84.50
2023-03-06T02:06:19.703Z,84.28
2023-03-06T02:08:52.943Z,84.53
2023-03-06T02:11:26.213Z,84.33
2023-03-06T02:13:57.786Z,84.14
2023-03-06T02:16:28.289Z,84.28
2023-03-06T02:19:03.155Z,84.12
2023-03-06T02:21:37.415Z,84.05
2023-03-06T02:24:23.800Z,84.26
2023-03-06T02:26:56.377Z,83.98
2023-03-06T02:29:30.525Z,83.93
2023-03-06T02:32:01.480Z,83.81
2023-03-06T02:34:56.040Z,83.83
2023-03-06T02:37:29.310Z,83.80
2023-03-06T02:40:12.343Z,84.03
2023-03-06T02:42:49.047Z,83.91
2023-03-06T02:45:27.022Z,83.90
2023-03-06T02:47:58.019Z,83.83
2023-03-06T02:50:29.102Z,83.86
2023-03-06T02:53:00.222Z,83.98
2023-03-06T02:55:31.297Z,83.87
2023-03-06T02:58:02.542Z,83.91
2023-03-06T03:00:35.056Z,83.88
2023-03-06T03:03:07.168Z,83.98
2023-03-06T03:05:38.273Z,83.92
2023-03-06T03:08:09.819Z,84.01
2023-03-06T03:10:40.915Z,83.71
2023-03-06T03:13:13.109Z,83.95
2023-03-06T03:15:44.753Z,83.84
2023-03-06T03:18:14.154Z,83.61
2023-03-06T03:20:45.982Z,83.64
2023-03-06T03:23:19.921Z,83.79
2023-03-06T03:25:51.130Z,83.75
2023-03-06T03:28:22.175Z,83.52
2023-03-06T03:30:53.290Z,83.84
2023-03-06T03:33:24.397Z,83.70
2023-03-06T03:36:00.451Z,83.75
2023-03-06T03:38:32.739Z,83.77
2023-03-06T03:41:05.260Z,83.85
2023-03-06T03:43:36.439Z,83.64
2023-03-06T03:46:08.021Z,83.66
2023-03-06T03:48:39.067Z,83.69
2023-03-06T03:51:12.250Z,83.59
2023-03-06T03:53:43.815Z,83.83
2023-03-06T03:56:15.603Z,83.74
2023-03-06T03:58:46.965Z,83.74
2023-03-06T04:01:17.943Z,83.78
2023-03-06T04:03:48.934Z,83.79
2023-03-06T04:06:20.395Z,83.71
2023-03-06T04:08:49.883Z,83.63
2023-03-06T04:11:20.856Z,83.61
2023-03-06T04:13:52.112Z,83.63
2023-03-06T04:16:23.193Z,83.40
2023-03-06T04:18:54.251Z,83.47
2023-03-06T04:21:25.233Z,83.50
2023-03-06T04:23:56.262Z,83.33
2023-03-06T04:26:27.592Z,83.33
2023-03-06T04:28:58.739Z,83.35
2023-03-06T04:31:29.681Z,83.22
2023-03-06T04:34:00.772Z,83.18
2023-03-06T04:36:34.146Z,83.20
2023-03-06T04:39:05.474Z,83.37
2023-03-06T04:41:36.591Z,83.27
2023-03-06T04:44:08.394Z,83.38
2023-03-06T04:46:39.773Z,83.70
2023-03-06T04:49:10.875Z,83.73
2023-03-06T04:51:42.034Z,83.81
2023-03-06T04:54:13.011Z,83.81
2023-03-06T04:56:44.058Z,83.79
2023-03-06T04:59:15.061Z,83.95
2023-03-06T05:01:46.037Z,83.86
2023-03-06T05:04:17.199Z,83.99
2023-03-06T05:06:48.221Z,83.99
2023-03-06T05:09:19.234Z,83.78
2023-03-06T05:11:50.213Z,83.62
2023-03-06T05:14:21.847Z,83.56
2023-03-06T05:16:52.780Z,83.58
2023-03-06T05:19:23.799Z,83.57
2023-03-06T05:21:54.915Z,83.45
2023-03-06T05:24:26.272Z,83.53
2023-03-06T05:26:57.345Z,83.39
2023-03-06T05:29:28.948Z,83.46
2023-03-06T05:32:00.158Z,83.45
2023-03-06T05:34:31.273Z,83.66
2023-03-06T05:37:02.345Z,83.34
2023-03-06T05:39:33.437Z,83.25
2023-03-06T05:42:04.545Z,83.32
2023-03-06T05:44:36.631Z,83.44
2023-03-06T05:47:08.377Z,83.41
2023-03-06T05:49:37.794Z,83.17
2023-03-06T05:52:10.239Z,83.32
2023-03-06T05:54:41.202Z,83.35
2023-03-06T05:57:12.320Z,83.40
2023-03-06T05:59:43.350Z,83.20
2023-03-06T06:02:13.049Z,83.24
2023-03-06T06:04:44.200Z,83.34
2023-03-06T06:07:17.705Z,83.38
2023-03-06T06:09:49.152Z,83.38
2023-03-06T06:12:20.162Z,83.25
2023-03-06T06:14:51.314Z,83.49
2023-03-06T06:17:22.438Z,83.44
2023-03-06T06:19:53.634Z,83.41
2023-03-06T06:22:24.733Z,83.54
2023-03-06T06:24:55.785Z,83.36
2023-03-06T06:27:27.069Z,83.19
2023-03-06T06:29:58.199Z,83.05
2023-03-06T06:32:29.617Z,83.06
2023-03-06T06:35:01.521Z,83.03
2023-03-06T06:37:32.765Z,82.74
2023-03-06T06:40:08.054Z,82.60
2023-03-06T06:42:40.309Z,82.50
2023-03-06T06:45:13.672Z,82.46
2023-03-06T06:47:44.878Z,82.16
2023-03-06T06:50:19.632Z,82.24
2023-03-06T06:52:50.710Z,81.95
2023-03-06T06:55:21.855Z,81.65
2023-03-06T06:57:52.791Z,81.56
2023-03-06T07:00:25.713Z,81.34
2023-03-06T07:02:56.825Z,81.16
2023-03-06T07:05:28.702Z,81.06
2023-03-06T07:07:59.837Z,81.06
2023-03-06T07:10:33.970Z,80.88
2023-03-06T07:13:04.957Z,80.80
2023-03-06T07:15:35.803Z,80.65
2023-03-06T07:18:06.916Z,80.59
2023-03-06T07:20:37.987Z,80.29
2023-03-06T07:23:12.487Z,80.22
2023-03-06T07:25:43.743Z,80.08
2023-03-06T07:28:15.147Z,79.91
2023-03-06T07:30:46.983Z,79.68
2023-03-06T07:33:18.723Z,79.50
2023-03-06T07:35:50.073Z,79.24
2023-03-06T07:38:21.218Z,79.09
2023-03-06T07:40:52.848Z,79.27
2023-03-06T07:43:23.857Z,79.15
2023-03-06T07:46:00.040Z,79.26
2023-03-06T07:48:31.843Z,79.02
2023-03-06T07:51:04.836Z,78.95
2023-03-06T07:53:36.781Z,79.00
2023-03-06T07:56:11.134Z,78.40
2023-03-06T07:58:44.922Z,78.09
2023-03-06T08:01:17.788Z,77.97
2023-03-06T08:03:50.401Z,77.63
2023-03-06T08:06:23.910Z,77.12
2023-03-06T08:08:56.565Z,76.83
2023-03-06T08:11:30.023Z,76.84
2023-03-06T08:14:01.381Z,76.38
2023-03-06T08:16:31.457Z,76.20
2023-03-06T08:19:02.877Z,76.05
2023-03-06T08:21:33.859Z,74.73
2023-03-06T08:24:06.263Z,74.59
2023-03-06T08:26:37.755Z,74.14
2023-03-06T08:29:09.144Z,73.98
2023-03-06T08:31:41.510Z,74.15
2023-03-06T08:34:14.971Z,73.61
2023-03-06T08:36:46.101Z,73.04
2023-03-06T08:39:17.156Z,73.62
2023-03-06T08:41:48.597Z,73.66
2023-03-06T08:44:19.574Z,73.46
2023-03-06T08:46:50.988Z,73.41
2023-03-06T08:49:22.452Z,73.85
2023-03-06T08:51:51.878Z,73.41
2023-03-06T08:54:22.974Z,72.42
2023-03-06T08:56:54.299Z,73.05
2023-03-06T08:59:25.920Z,73.53
2023-03-06T09:01:57.175Z,73.45
2023-03-06T09:04:26.782Z,72.90
2023-03-06T09:06:57.589Z,72.94
2023-03-06T09:09:28.782Z,73.03
2023-03-06T09:11:59.845Z,72.50
2023-03-06T09:14:32.051Z,72.43
2023-03-06T09:17:02.955Z,72.74
2023-03-06T09:19:32.637Z,73.08
2023-03-06T09:22:03.731Z,73.31
2023-03-06T09:24:34.697Z,72.74
2023-03-06T09:27:05.958Z,72.47
2023-03-06T09:29:36.979Z,72.36
2023-03-06T09:32:11.811Z,72.95
2023-03-06T09:34:43.196Z,72.63
2023-03-06T09:37:16.290Z,72.30
2023-03-06T09:39:47.550Z,72.10
2023-03-06T09:42:21.294Z,72.49
2023-03-06T09:44:55.826Z,73.11
2023-03-06T09:47:42.686Z,72.72
2023-03-06T09:50:39.893Z,72.33
2023-03-06T09:53:43.448Z,72.10
2023-03-06T09:56:18.918Z,71.49
2023-03-06T09:58:54.937Z,71.50
2023-03-06T10:01:28.924Z,71.38
2023-03-06T10:04:11.188Z,71.24
2023-03-06T10:06:49.571Z,71.10
2023-03-06T10:09:25.611Z,71.24
2023-03-06T10:12:00.467Z,71.40
2023-03-06T10:14:39.118Z,71.56
2023-03-06T10:17:17.181Z,71.49
2023-03-06T10:19:49.463Z,71.59
2023-03-06T10:22:29.312Z,71.11
2023-03-06T10:25:10.630Z,70.78
2023-03-06T10:27:48.895Z,70.72
2023-03-06T10:30:34.929Z,71.15
2023-03-06T10:33:16.802Z,71.72
2023-03-06T10:35:51.665Z,71.49
2023-03-06T10:38:25.126Z,71.34
2023-03-06T10:41:08.238Z,71.22
2023-03-06T10:43:42.696Z,70.66
2023-03-06T10:46:15.722Z,70.71
2023-03-06T10:49:00.849Z,70.56
2023-03-06T10:51:34.083Z,70.48
2023-03-06T10:54:20.757Z,70.67
2023-03-06T10:56:51.775Z,70.34
2023-03-06T10:59:25.444Z,70.90
2023-03-06T11:01:59.138Z,71.27
2023-03-06T11:04:32.692Z,71.24
2023-03-06T11:07:15.738Z,70.03
2023-03-06T11:10:00.284Z,70.42
2023-03-06T11:12:33.556Z,70.49
2023-03-06T11:15:22.499Z,70.73
2023-03-06T11:18:02.004Z,70.73
2023-03-06T11:20:50.439Z,70.72
2023-03-06T11:23:23.206Z,70.42
2023-03-06T11:25:58.648Z,70.09
2023-03-06T11:28:32.785Z,70.55
2023-03-06T11:31:07.175Z,70.50
2023-03-06T11:33:45.626Z,70.02
2023-03-06T11:36:24.032Z,69.60
2023-03-06T11:38:56.125Z,68.94
2023-03-06T11:41:36.619Z,68.40
2023-03-06T11:44:14.317Z,68.06
2023-03-06T11:46:50.796Z,68.56
2023-03-06T11:49:28.706Z,68.77
2023-03-06T11:52:07.655Z,68.86
2023-03-06T11:54:38.822Z,68.83
2023-03-06T11:57:16.699Z,68.85
2023-03-06T12:00:04.617Z,68.54
2023-03-06T12:02:49.511Z,68.63
2023-03-06T12:05:34.675Z,68.25
2023-03-06T12:08:22.430Z,68.32
2023-03-06T12:10:58.829Z,68.21
2023-03-06T12:13:46.350Z,69.01
2023-03-06T12:16:33.633Z,69.34
2023-03-06T12:19:16.333Z,69.61
2023-03-06T12:21:57.153Z,70.48
2023-03-06T12:24:56.330Z,70.78
2023-03-06T12:27:34.110Z,71.32
2023-03-06T12:30:26.482Z,70.35
2023-03-06T12:33:06.182Z,70.96
2023-03-06T12:35:58.015Z,71.40
2023-03-06T12:38:53.202Z,71.74
2023-03-06T12:41:36.487Z,71.23
2023-03-06T12:44:21.316Z,71.45
2023-03-06T12:46:58.971Z,72.38
2023-03-06T12:49:34.597Z,73.35
2023-03-06T12:52:08.233Z,74.49
2023-03-06T12:54:42.446Z,75.31
2023-03-06T12:57:17.001Z,76.20
2023-03-06T12:59:49.169Z,77.51
2023-03-06T13:03:00.112Z,78.35
2023-03-06T13:05:43.851Z,79.17
2023-03-06T13:08:35.947Z,79.39
2023-03-06T13:11:24.236Z,79.90
2023-03-06T13:13:56.030Z,80.18
2023-03-06T13:16:32.572Z,80.32
2023-03-06T13:19:12.696Z,80.61
2023-03-06T13:22:14.586Z,80.62
2023-03-06T13:24:45.735Z,80.69
2023-03-06T13:28:01.042Z,80.87
2023-03-06T13:30:46.039Z,80.76
2023-03-06T13:33:50.247Z,80.95
2023-03-06T13:36:27.450Z,80.98
2023-03-06T13:39:03.409Z,81.34
2023-03-06T13:41:59.676Z,81.44
2023-03-06T13:44:53.127Z,81.29
2023-03-06T13:48:09.740Z,81.29
2023-03-06T13:50:43.040Z,81.72
2023-03-06T13:53:51.980Z,81.48
2023-03-06T13:56:49.062Z,81.65
2023-03-06T13:59:35.049Z,81.30
2023-03-06T14:02:23.171Z,80.74
2023-03-06T14:04:59.981Z,80.59
2023-03-06T14:07:33.505Z,80.38
2023-03-06T14:10:27.988Z,80.16
2023-03-06T14:13:15.433Z,79.95
2023-03-06T14:15:49.286Z,79.93
2023-03-06T14:18:23.809Z,79.37
2023-03-06T14:20:58.868Z,79.26
2023-03-06T14:23:35.343Z,79.46
2023-03-06T14:26:15.572Z,79.08
2023-03-06T14:28:56.047Z,78.99
2023-03-06T14:31:29.813Z,79.08
2023-03-06T14:34:02.457Z,79.37
2023-03-06T14:36:35.762Z,79.01
2023-03-06T14:39:13.291Z,78.85
2023-03-06T14:41:44.637Z,78.83
2023-03-06T14:44:21.750Z,78.73
2023-03-06T14:46:55.600Z,78.23
2023-03-06T14:49:27.575Z,78.28
2023-03-06T14:52:01.808Z,78.23
2023-03-06T14:54:36.953Z,78.21
2023-03-06T14:57:12.740Z,77.69
2023-03-06T14:59:47.915Z,77.33
2023-03-06T15:02:23.609Z,77.35
2023-03-06T15:04:58.502Z,77.60
2023-03-06T15:07:33.694Z,77.93
2023-03-06T15:10:10.488Z,78.06
2023-03-06T15:12:41.491Z,78.10
2023-03-06T15:15:31.666Z,77.99
2023-03-06T15:18:03.345Z,77.84
2023-03-06T15:20:45.655Z,77.91
2023-03-06T15:23:25.851Z,77.62
2023-03-06T15:26:01.876Z,77.80
2023-03-06T15:28:38.901Z,78.13
2023-03-06T15:31:22.732Z,78.51
2023-03-06T15:34:12.455Z,78.80
2023-03-06T15:36:45.196Z,79.19
2023-03-06T15:39:32.666Z,79.75
2023-03-06T15:42:09.086Z,79.83
2023-03-06T15:44:40.482Z,80.16
2023-03-06T15:47:13.618Z,80.38
2023-03-06T15:49:44.914Z,80.49
2023-03-06T15:52:16.445Z,80.78
2023-03-06T15:54:47.556Z,80.62
2023-03-06T15:57:23.697Z,80.61
2023-03-06T15:59:56.294Z,80.90
2023-03-06T16:02:27.489Z,80.61
2023-03-06T16:05:02.418Z,80.69
2023-03-06T16:07:33.568Z,80.68
2023-03-06T16:10:04.819Z,80.71
2023-03-06T16:12:37.120Z,80.93
2023-03-06T16:15:17.120Z,80.91
2023-03-06T16:17:49.500Z,80.97
2023-03-06T16:20:24.265Z,81.09
2023-03-06T16:22:56.195Z,81.16
2023-03-06T16:25:29.170Z,81.20
2023-03-06T16:28:01.343Z,81.16
2023-03-06T16:30:35.510Z,81.29
2023-03-06T16:33:07.449Z,81.13
2023-03-06T16:35:38.512Z,81.31
2023-03-06T16:38:11.095Z,81.34
2023-03-06T16:40:42.618Z,81.49
2023-03-06T16:43:16.228Z,81.43
2023-03-06T16:45:47.511Z,81.63
2023-03-06T16:48:19.074Z,81.74
2023-03-06T16:50:51.179Z,81.96
2023-03-06T16:53:20.968Z,82.29
2023-03-06T16:55:52.122Z,82.38
2023-03-06T16:58:23.393Z,82.54
2023-03-06T17:00:54.650Z,82.41
2023-03-06T17:03:25.677Z,82.58
2023-03-06T17:05:56.853Z,82.76
2023-03-06T17:08:27.939Z,82.75
2023-03-06T17:10:57.749Z,82.80
2023-03-06T17:13:31.819Z,83.09
2023-03-06T17:16:03.310Z,83.51
2023-03-06T17:18:35.132Z,84.07
2023-03-06T17:21:08.505Z,84.17
2023-03-06T17:23:40.194Z,84.47
2023-03-06T17:26:14.286Z,84.20
2023-03-06T17:28:45.761Z,84.28
2023-03-06T17:31:19.434Z,84.36
2023-03-06T17:33:51.513Z,84.58
2023-03-06T17:36:22.766Z,84.74
2023-03-06T17:38:55.317Z,84.99
2023-03-06T17:41:26.600Z,84.75
2023-03-06T17:43:58.948Z,84.92
2023-03-06T17:46:31.885Z,85.10
2023-03-06T17:49:02.945Z,85.02
2023-03-06T17:51:33.749Z,85.09
2023-03-06T17:54:04.943Z,85.18
2023-03-06T17:56:37.989Z,85.22
2023-03-06T17:59:09.187Z,85.35
2023-03-06T18:01:40.229Z,85.45
2023-03-06T18:04:11.647Z,85.58
2023-03-06T18:06:41.070Z,85.71
2023-03-06T18:09:12.402Z,85.70
2023-03-06T18:11:43.657Z,85.85
2023-03-06T18:14:14.936Z,85.73
2023-03-06T18:16:48.046Z,85.73
2023-03-06T18:19:19.430Z,85.97
2023-03-06T18:21:49.014Z,86.29
2023-03-06T18:24:20.001Z,86.29
2023-03-06T18:26:51.005Z,86.24
2023-03-06T18:29:22.031Z,86.60
2023-03-06T18:31:53.452Z,86.70
2023-03-06T18:34:24.594Z,86.61
2023-03-06T18:36:55.594Z,86.74
2023-03-06T18:39:26.431Z,86.61
2023-03-06T18:41:57.706Z,86.78
2023-03-06T18:44:29.657Z,86.98
2023-03-06T18:47:01.213Z,87.05
2023-03-06T18:49:33.879Z,87.01
2023-03-06T18:52:05.720Z,87.23
2023-03-06T18:54:36.971Z,87.00
2023-03-06T18:57:06.612Z,87.06
2023-03-06T18:59:37.815Z,86.97
2023-03-06T19:02:07.942Z,87.10
2023-03-06T19:04:39.414Z,87.02
2023-03-06T19:07:13.756Z,86.95
2023-03-06T19:09:48.727Z,87.25
2023-03-06T19:12:19.858Z,87.26
2023-03-06T19:14:51.326Z,87.44
2023-03-06T19:17:24.895Z,87.32
2023-03-06T19:19:56.309Z,87.51
2023-03-06T19:22:25.830Z,87.66
2023-03-06T19:24:58.089Z,87.77
2023-03-06T19:27:30.190Z,87.63
2023-03-06T19:30:01.242Z,87.61
2023-03-06T19:32:33.552Z,87.71
2023-03-06T19:35:05.931Z,87.76
2023-03-06T19:37:37.276Z,87.77
2023-03-06T19:40:07.566Z,87.85
2023-03-06T19:42:38.918Z,87.82
2023-03-06T19:45:11.629Z,87.89
2023-03-06T19:47:42.868Z,87.86
2023-03-06T19:50:14.885Z,87.89
2023-03-06T19:52:45.715Z,87.85
2023-03-06T19:55:17.812Z,87.96
2023-03-06T19:57:49.181Z,87.97
2023-03-06T20:00:19.283Z,88.07
2023-03-06T20:02:50.525Z,88.14
2023-03-06T20:05:22.089Z,88.19
2023-03-06T20:07:53.647Z,88.08
2023-03-06T20:10:23.471Z,88.21
2023-03-06T20:12:54.505Z,88.31
2023-03-06T20:15:28.034Z,88.39
2023-03-06T20:17:59.398Z,88.58
2023-03-06T20:20:30.892Z,88.34
2023-03-06T20:23:04.704Z,88.32
2023-03-06T20:25:37.640Z,88.45
2023-03-06T20:28:09.106Z,88.26
2023-03-06T20:30:40.825Z,88.38
2023-03-06T20:33:11.912Z,88.29
2023-03-06T20:35:44.221Z,88.31
2023-03-06T20:38:15.495Z,88.14
2023-03-06T20:40:46.880Z,88.07
2023-03-06T20:43:17.711Z,88.08
2023-03-06T20:46:00.672Z,88.05
2023-03-06T20:48:32.062Z,88.12
2023-03-06T20:51:05.902Z,88.13
2023-03-06T20:53:37.247Z,88.06
2023-03-06T20:56:11.907Z,88.14
2023-03-06T20:58:42.984Z,88.06
2023-03-06T21:01:20.605Z,87.92
2023-03-06T21:03:52.392Z,87.90
2023-03-06T21:06:24.322Z,87.80
2023-03-06T21:08:55.557Z,87.96
2023-03-06T21:11:27.506Z,87.91
2023-03-06T21:14:00.932Z,87.95
2023-03-06T21:16:32.369Z,88.03
2023-03-06T21:19:01.949Z,87.89
2023-03-06T21:21:36.108Z,87.90
2023-03-06T21:24:07.574Z,87.91
2023-03-06T21:26:38.652Z,87.83
2023-03-06T21:29:09.964Z,87.88
2023-03-06T21:31:41.312Z,87.93
2023-03-06T21:34:12.598Z,87.73
2023-03-06T21:36:43.617Z,87.78
2023-03-06T21:39:14.798Z,87.82
2023-03-06T21:41:45.886Z,87.78
2023-03-06T21:44:17.120Z,87.63
2023-03-06T21:46:48.313Z,87.72
2023-03-06T21:49:19.538Z,87.59
2023-03-06T21:51:50.609Z,87.66
2023-03-06T21:54:22.019Z,87.59
2023-03-06T21:56:51.420Z,87.59
2023-03-06T21:59:22.683Z,87.35
2023-03-06T22:01:53.985Z,87.52
2023-03-06T22:04:25.126Z,87.50
2023-03-06T22:06:56.294Z,87.43
2023-03-06T22:09:27.609Z,87.34
2023-03-06T22:11:58.660Z,87.27
2023-03-06T22:14:29.632Z,87.47
2023-03-06T22:17:01.468Z,87.36
2023-03-06T22:19:32.914Z,87.44
2023-03-06T22:22:03.772Z,87.44
2023-03-06T22:24:35.184Z,87.40
2023-03-06T22:27:07.748Z,87.40
2023-03-06T22:29:39.154Z,87.56
2023-03-06T22:32:10.924Z,87.41
2023-03-06T22:34:42.024Z,87.49
2023-03-06T22:37:13.268Z,87.34
2023-03-06T22:39:44.832Z,87.48
2023-03-06T22:42:16.192Z,87.55
2023-03-06T22:44:47.532Z,87.48
2023-03-06T22:47:16.911Z,87.42
2023-03-06T22:49:47.995Z,87.51
2023-03-06T22:52:19.684Z,87.57
2023-03-06T22:54:50.737Z,87.64
2023-03-06T22:57:21.846Z,87.59
2023-03-06T22:59:53.068Z,87.42
2023-03-06T23:02:24.103Z,87.30
2023-03-06T23:04:55.334Z,87.29
2023-03-06T23:07:26.514Z,87.21
2023-03-06T23:09:57.688Z,87.01
2023-03-06T23:12:28.768Z,87.20
2023-03-06T23:14:59.991Z,87.21
2023-03-06T23:17:30.991Z,87.10
2023-03-06T23:20:05.035Z,87.29
2023-03-06T23:22:36.083Z,87.13
2023-03-06T23:25:08.285Z,87.27
2023-03-06T23:27:39.734Z,87.18
2023-03-06T23:30:13.120Z,87.35
2023-03-06T23:32:45.926Z,87.20
2023-03-06T23:35:17.345Z,87.39
2023-03-06T23:37:48.406Z,87.24
2023-03-06T23:40:19.816Z,87.32
2023-03-06T23:42:49.377Z,87.51
2023-03-06T23:45:20.726Z,87.44
2023-03-06T23:47:51.930Z,87.39
2023-03-06T23:50:24.361Z,87.44
2023-03-06T23:52:56.359Z,87.48
2023-03-06T23:55:27.264Z,87.50
2023-03-06T23:57:58.293Z,87.42
